Página principal
METAR-TAF:

METAR-TAF

Aeroportos :

Iqaluit, Nunavut, Canadá

latitude: 63-45N, longitude: 068-33W, altura: 34 m

Observação actual do tempo

O boletim foi feito há 1 hora e 6 minutos, às 18:00 UTC
Vento 7 kt de nor-noroeste
Temperatura -7°C
Humidade 62%
Pressão 1005 hPa
Visibilidade: 48.3 km
Poucas nuvensa uma altura de 3600 ft
Nuvens fragmentadasa uma altura de 25000 ft

METAR: CYFB 171800Z 34007KT 30SM FEW036 BKN250 M07/M13 A2969 RMK SC2CI3 SLP058

Hora: 15:06 (19:06 UTC)

Previsão

O boletim foi feito há 1 hora e 28 minutos, às 17:38 UTC
Previsão válida de 17 às 18 UTC a 18 às 18 UTC
Vento 8 kt de norte
Visibilidade: 10 km
Nuvens dispersasa uma altura de 3000 ft
Temporariamente
de 17 às 18 UTC a 18 às 18 UTC
Visibilidade: 10 km
Nuvens fragmentadasa uma altura de 3000 ft
neve fraca

TAF: CYFB 171738Z 1718/1818 35008KT P6SM SCT030 TEMPO 1718/1818 P6SM -SN BKN030 RMK NXT FCST BY 180000Z

Observações e previsões do tempo de mais de 4000 aeroportos (mensagens METAR e TAF).

As estações disponíveis são os pontos amarelos e vermelhos sobre o mapa.

Mova o rato sobre o mapa para ver o nome da estação.

Depois clique no ponto para visualizar as observações e previsões meteorológicas.

Para alterar o mapa : clique nos botões verdes com uma cruz preta para aumentar o zoom; no botão verde com uma pitada de zoom; ou nas setas verdes para mapas adjacentes.


METAR-TAF: